Terminal Aerodrome Forecast
Issued by NWS

Home | Current Version | Previous Version | Graphics & Text | Print | Product List | Glossary On
Versions: 1 2 3 4 5 6 7 8 9 10 11 12 13 14 15 16 17
000
FTUS43 KGRB 271700
TAFRHI
TAF
KRHI 271725Z 2718/2818 11008KT P6SM VCSH SCT070 BKN110
     FM280000 VRB02KT P6SM VCSH SCT035 BKN070
      TEMPO 2800/2804 5SM -SHRA BR BKN035
     FM280400 VRB02KT 6SM -RA BR BKN008 OVC035
     FM280700 27004KT P6SM OVC008
     FM281200 25009KT P6SM SCT015 BKN040
     FM281600 25014G22KT P6SM VCSH SCT020 BKN040=

USA.gov is the U.S. government's official web portal to all federal, state and local government web resources and services.